Time;durP1;ratioP1;P1;durP2;ratioP2;P2;SDS_P1;SDS_P2;PMS_P1;PMS_P2;Temp;Humidity;BMP_temperature;BMP_pressure;BME280_temperature;BME280_humidity;BME280_pressure;Samples;Min_cycle;Max_cycle;Signal;HPM_P1;HPM_P2
2023/12/25 00:00:04;;;;;;;14.70;3.33;;;12.30;99.90;;;;;;7371539;19;20025;-65
2023/12/25 00:02:34;;;;;;;14.07;3.60;;;12.30;99.90;;;;;;7372394;19;20021;-65
2023/12/25 00:05:01;;;;;;;18.27;3.53;;;12.40;99.90;;;;;;7368150;19;20224;-65
2023/12/25 00:07:27;;;;;;;19.60;4.38;;;12.30;99.90;;;;;;7376054;19;20631;-65
2023/12/25 00:10:13;;;;;;;14.95;4.07;;;12.30;99.90;;;;;;7367330;19;20049;-65
2023/12/25 00:12:40;;;;;;;12.65;3.28;;;12.30;99.90;;;;;;7371373;19;20070;-65
2023/12/25 00:15:09;;;;;;;15.65;2.63;;;12.30;99.90;;;;;;7372630;19;20022;-65
2023/12/25 00:17:35;;;;;;;15.73;3.25;;;12.30;99.90;;;;;;7372386;19;20026;-65
2023/12/25 00:20:03;;;;;;;17.83;4.20;;;12.30;99.90;;;;;;7374318;19;20431;-65
2023/12/25 00:22:29;;;;;;;14.73;4.10;;;12.30;99.90;;;;;;7369878;19;20042;-65
2023/12/25 00:24:56;;;;;;;18.95;3.28;;;12.30;99.90;;;;;;7374202;19;20021;-76
2023/12/25 00:27:25;;;;;;;17.20;3.22;;;12.30;99.90;;;;;;7370927;19;20026;-76
2023/12/25 00:29:54;;;;;;;11.52;3.10;;;12.30;99.90;;;;;;7370715;19;20022;-65
2023/12/25 00:32:21;;;;;;;13.35;3.85;;;12.30;99.90;;;;;;7369688;19;20033;-76
2023/12/25 00:34:48;;;;;;;11.82;4.00;;;12.20;99.90;;;;;;7370796;19;20665;-65
2023/12/25 00:37:15;;;;;;;17.27;3.25;;;12.20;99.90;;;;;;7370405;19;20067;-65
2023/12/25 00:39:42;;;;;;;16.95;3.20;;;12.20;99.90;;;;;;7372283;19;20050;-65
2023/12/25 00:42:28;;;;;;;17.00;2.78;;;12.20;99.90;;;;;;7371839;19;20015;-65
2023/12/25 00:45:14;;;;;;;15.85;4.03;;;12.10;99.90;;;;;;7366264;19;20521;-65
2023/12/25 00:47:40;;;;;;;14.02;3.33;;;12.00;99.90;;;;;;7370751;19;20042;-76
2023/12/25 00:50:10;;;;;;;16.08;2.75;;;12.00;99.90;;;;;;7369918;19;20029;-76
2023/12/25 00:52:36;;;;;;;12.32;3.10;;;12.00;99.90;;;;;;7371162;19;20526;-76
2023/12/25 00:55:02;;;;;;;13.75;3.08;;;12.00;99.90;;;;;;7369691;19;20053;-76
2023/12/25 00:57:29;;;;;;;14.38;3.17;;;12.00;99.90;;;;;;7369717;19;20039;-76
2023/12/25 00:59:55;;;;;;;10.70;3.08;;;12.00;99.90;;;;;;7372781;19;20050;-65
2023/12/25 01:02:22;;;;;;;14.88;3.10;;;11.90;99.90;;;;;;7371409;19;20597;-66
2023/12/25 01:04:48;;;;;;;12.85;3.45;;;11.90;99.90;;;;;;7370690;19;20025;-76
2023/12/25 01:07:14;;;;;;;13.20;2.88;;;11.80;99.90;;;;;;7372942;19;20786;-76
2023/12/25 01:09:41;;;;;;;15.63;3.08;;;11.80;99.90;;;;;;7367746;19;20795;-76
2023/12/25 01:12:10;;;;;;;12.18;2.85;;;11.80;99.90;;;;;;7370212;19;20014;-76
2023/12/25 01:14:36;;;;;;;10.32;2.60;;;11.80;99.90;;;;;;7369709;19;20192;-75
2023/12/25 01:17:02;;;;;;;12.80;2.88;;;11.80;99.90;;;;;;7370564;19;20018;-76
2023/12/25 01:19:28;;;;;;;20.58;3.13;;;11.70;99.90;;;;;;7370014;19;20022;-76
2023/12/25 01:21:55;;;;;;;15.32;3.30;;;11.70;99.90;;;;;;7371117;19;20043;-65
2023/12/25 01:24:21;;;;;;;12.27;3.13;;;11.70;99.90;;;;;;7367741;19;20022;-65
2023/12/25 01:26:48;;;;;;;19.40;3.42;;;11.70;99.90;;;;;;7372605;19;20014;-65
2023/12/25 01:29:36;;;;;;;13.30;2.40;;;11.70;99.90;;;;;;7367165;19;20035;-65
2023/12/25 01:32:03;;;;;;;15.00;4.25;;;11.70;99.90;;;;;;7364597;19;20022;-65
2023/12/25 01:34:29;;;;;;;9.98;2.75;;;11.70;99.90;;;;;;7370838;19;20078;-65
2023/12/25 01:36:59;;;;;;;16.55;3.20;;;11.70;99.90;;;;;;7369683;19;20082;-76
2023/12/25 01:39:46;;;;;;;10.43;2.85;;;11.70;99.90;;;;;;7366581;19;20014;-76
2023/12/25 01:42:12;;;;;;;16.95;3.58;;;11.70;99.90;;;;;;7368364;19;20022;-76
2023/12/25 01:44:58;;;;;;;15.82;2.60;;;11.70;99.90;;;;;;7370018;19;20039;-64
2023/12/25 01:47:24;;;;;;;14.55;2.97;;;11.70;99.90;;;;;;7370851;19;20018;-65
2023/12/25 01:49:50;;;;;;;16.40;3.72;;;11.70;99.90;;;;;;7368962;19;20572;-65
2023/12/25 01:52:18;;;;;;;12.48;2.85;;;11.70;99.90;;;;;;7369964;19;20022;-65
2023/12/25 01:54:45;;;;;;;15.25;3.75;;;11.70;99.90;;;;;;7360448;19;20019;-65
2023/12/25 01:57:12;;;;;;;9.48;2.30;;;11.70;99.90;;;;;;7368634;19;20014;-65
2023/12/25 01:59:39;;;;;;;11.85;2.25;;;11.70;99.90;;;;;;7361157;19;20019;-65
2023/12/25 02:02:06;;;;;;;11.75;2.22;;;11.70;99.90;;;;;;7370493;19;20022;-65
2023/12/25 02:04:35;;;;;;;9.35;2.13;;;11.80;99.90;;;;;;7367148;19;20026;-65
2023/12/25 02:07:02;;;;;;;12.75;2.28;;;11.70;99.90;;;;;;7368028;19;20026;-65
2023/12/25 02:09:35;;;;;;;16.38;3.28;;;11.70;99.90;;;;;;7367325;19;20239;-65
2023/12/25 02:12:01;;;;;;;13.93;2.83;;;11.70;99.90;;;;;;7367000;19;20022;-65
2023/12/25 02:14:28;;;;;;;15.35;2.85;;;11.70;99.90;;;;;;7366298;19;20018;-65
2023/12/25 02:16:54;;;;;;;9.80;2.20;;;11.70;99.90;;;;;;7366917;19;20513;-65
2023/12/25 02:19:29;;;;;;;9.60;2.33;;;11.70;99.90;;;;;;7366936;19;20019;-65
2023/12/25 02:21:57;;;;;;;13.18;2.47;;;11.70;99.90;;;;;;7364004;19;20028;-65
2023/12/25 02:24:29;;;;;;;12.98;2.60;;;11.70;99.90;;;;;;7367269;19;20784;-65
2023/12/25 02:26:55;;;;;;;14.63;2.53;;;11.70;99.90;;;;;;7359426;19;20144;-65
2023/12/25 02:29:22;;;;;;;17.63;3.03;;;11.60;99.90;;;;;;7368478;19;20018;-76
2023/12/25 02:31:49;;;;;;;8.23;2.80;;;11.60;99.90;;;;;;7367689;19;20086;-76
2023/12/25 02:34:16;;;;;;;11.48;2.15;;;11.50;99.90;;;;;;7369574;19;20023;-76
2023/12/25 02:36:42;;;;;;;16.35;2.90;;;11.60;99.90;;;;;;7363234;19;20018;-76
2023/12/25 02:39:28;;;;;;;8.32;2.05;;;11.60;99.90;;;;;;7367178;19;20025;-76
2023/12/25 02:41:55;;;;;;;10.98;2.35;;;11.60;99.90;;;;;;7367509;19;20052;-76
2023/12/25 02:44:23;;;;;;;11.27;2.75;;;11.60;99.90;;;;;;7369387;19;20015;-76
2023/12/25 02:46:49;;;;;;;9.85;2.20;;;11.60;99.90;;;;;;7373358;19;20035;-65
2023/12/25 02:49:15;;;;;;;9.68;1.98;;;11.50;99.90;;;;;;7373889;19;20029;-65
2023/12/25 02:51:44;;;;;;;10.80;2.22;;;11.50;99.90;;;;;;7374678;19;20375;-65
2023/12/25 02:54:13;;;;;;;9.27;2.00;;;11.60;99.90;;;;;;7374171;19;20379;-65
2023/12/25 02:56:40;;;;;;;10.80;2.30;;;11.50;99.90;;;;;;7374249;19;20106;-65
2023/12/25 02:59:06;;;;;;;11.18;2.17;;;11.60;99.90;;;;;;7376333;19;20096;-65
2023/12/25 03:01:36;;;;;;;13.20;2.00;;;11.60;99.90;;;;;;7372386;19;20513;-65
2023/12/25 03:04:02;;;;;;;9.75;2.08;;;11.50;99.90;;;;;;7372668;19;20022;-65
2023/12/25 03:06:28;;;;;;;7.90;2.30;;;11.50;99.90;;;;;;7372963;19;20010;-65
2023/12/25 03:08:54;;;;;;;8.00;2.10;;;11.50;99.90;;;;;;7360461;19;20025;-65
2023/12/25 03:11:21;;;;;;;9.63;1.67;;;11.50;99.90;;;;;;7373008;19;20026;-65
2023/12/25 03:14:07;;;;;;;8.40;1.88;;;11.50;99.90;;;;;;7374351;19;20018;-65
2023/12/25 03:16:33;;;;;;;11.90;2.20;;;11.60;99.90;;;;;;7369657;19;20469;-65
2023/12/25 03:18:59;;;;;;;12.30;2.53;;;11.60;99.90;;;;;;7373760;19;20482;-65
2023/12/25 03:21:25;;;;;;;7.38;1.83;;;11.50;99.90;;;;;;7372971;19;20022;-65
2023/12/25 03:23:52;;;;;;;8.70;1.95;;;11.60;99.90;;;;;;7369063;19;20028;-65
2023/12/25 03:26:18;;;;;;;10.48;1.85;;;11.60;99.90;;;;;;7369918;19;20022;-65
2023/12/25 03:28:44;;;;;;;10.30;1.70;;;11.60;99.90;;;;;;7367642;19;20046;-65
2023/12/25 03:31:10;;;;;;;12.70;2.13;;;11.60;99.90;;;;;;7372562;19;20449;-65
2023/12/25 03:33:37;;;;;;;7.70;1.88;;;11.60;99.90;;;;;;7368923;19;20050;-66
2023/12/25 03:36:05;;;;;;;10.23;1.70;;;11.60;99.90;;;;;;7367968;19;20018;-65
2023/12/25 03:38:31;;;;;;;10.60;2.00;;;11.60;99.90;;;;;;7373626;19;20086;-65
2023/12/25 03:40:57;;;;;;;11.80;2.05;;;11.60;99.90;;;;;;7374302;19;20022;-65
2023/12/25 03:43:28;;;;;;;9.52;1.90;;;11.60;99.90;;;;;;7369821;19;20503;-76
2023/12/25 03:45:56;;;;;;;9.90;1.70;;;11.60;99.90;;;;;;7366960;19;20063;-77
2023/12/25 03:48:23;;;;;;;9.68;1.90;;;11.60;99.90;;;;;;7372724;19;20034;-77
2023/12/25 03:50:49;;;;;;;6.97;1.55;;;11.60;99.90;;;;;;7366039;19;20044;-77
2023/12/25 03:53:15;;;;;;;8.65;1.48;;;11.60;99.90;;;;;;7369780;19;20420;-77
2023/12/25 03:55:42;;;;;;;4.93;1.30;;;11.60;99.90;;;;;;7362741;19;20706;-76
2023/12/25 03:58:08;;;;;;;9.55;1.70;;;11.60;99.90;;;;;;7370848;19;20763;-77
2023/12/25 04:00:35;;;;;;;10.88;1.67;;;11.60;99.90;;;;;;7372489;19;20048;-77
2023/12/25 04:03:02;;;;;;;7.43;1.40;;;11.60;99.90;;;;;;7369916;19;20022;-76
2023/12/25 04:05:48;;;;;;;8.23;1.95;;;11.60;99.90;;;;;;7363653;19;20011;-77
2023/12/25 04:08:34;;;;;;;8.57;1.75;;;11.50;99.90;;;;;;7367704;19;20026;-76
2023/12/25 04:11:01;;;;;;;10.55;1.80;;;11.60;99.90;;;;;;7365805;19;20018;-77
2023/12/25 04:13:27;;;;;;;12.95;2.13;;;11.50;99.90;;;;;;7368523;19;20029;-76
2023/12/25 04:15:53;;;;;;;9.40;1.90;;;11.50;99.90;;;;;;7360918;19;20022;-66
2023/12/25 04:18:20;;;;;;;6.80;1.58;;;11.50;99.90;;;;;;7362647;19;20014;-76
2023/12/25 04:20:49;;;;;;;10.73;1.70;;;11.50;99.90;;;;;;7367414;19;20605;-66
2023/12/25 04:23:15;;;;;;;11.15;1.65;;;11.40;99.90;;;;;;7362715;19;20021;-77
2023/12/25 04:25:42;;;;;;;7.22;1.88;;;11.50;99.90;;;;;;7363131;19;20025;-77
2023/12/25 04:28:08;;;;;;;8.23;1.65;;;11.50;99.90;;;;;;7362202;19;20102;-76
2023/12/25 04:30:35;;;;;;;10.30;1.80;;;11.50;99.90;;;;;;7364869;19;20077;-77
2023/12/25 04:33:01;;;;;;;9.95;2.58;;;11.50;99.90;;;;;;7360578;19;20022;-77
2023/12/25 04:35:28;;;;;;;10.13;1.45;;;11.60;99.90;;;;;;7364614;19;20019;-76
2023/12/25 04:37:54;;;;;;;9.45;2.05;;;11.50;99.90;;;;;;7359117;19;20014;-77
2023/12/25 04:40:20;;;;;;;4.95;1.23;;;11.50;99.90;;;;;;7364223;19;20038;-76
2023/12/25 04:42:46;;;;;;;10.27;2.20;;;11.60;99.90;;;;;;7362315;19;21655;-76
2023/12/25 04:45:14;;;;;;;10.23;1.80;;;11.60;99.90;;;;;;7364694;19;20018;-77
2023/12/25 04:47:40;;;;;;;11.68;1.60;;;11.60;99.90;;;;;;7360762;19;20014;-77
2023/12/25 04:50:07;;;;;;;12.48;2.00;;;11.70;99.90;;;;;;7361548;19;20022;-77
2023/12/25 04:52:40;;;;;;;9.45;1.67;;;11.70;99.90;;;;;;7363481;19;20058;-77
2023/12/25 04:55:06;;;;;;;8.52;1.60;;;11.70;99.90;;;;;;7358558;19;20687;-77
2023/12/25 04:57:33;;;;;;;9.95;1.85;;;11.70;99.90;;;;;;7366190;19;20479;-65
2023/12/25 05:00:00;;;;;;;7.50;1.55;;;11.70;99.90;;;;;;7355980;19;20022;-65
2023/12/25 05:02:26;;;;;;;10.98;1.55;;;11.70;99.90;;;;;;7363966;19;20941;-77
2023/12/25 05:04:52;;;;;;;8.82;1.45;;;11.70;99.90;;;;;;7360627;19;20597;-77
2023/12/25 05:07:19;;;;;;;11.15;1.65;;;11.70;99.90;;;;;;7359716;19;20019;-78
2023/12/25 05:09:45;;;;;;;8.10;1.90;;;11.70;99.90;;;;;;7361869;19;20565;-65
2023/12/25 05:12:12;;;;;;;6.85;1.70;;;11.70;99.90;;;;;;7361093;19;20022;-65
2023/12/25 05:14:38;;;;;;;10.85;2.38;;;11.70;99.90;;;;;;7354585;19;20842;-77
2023/12/25 05:17:05;;;;;;;5.43;1.30;;;11.70;99.90;;;;;;7362038;19;21391;-78
2023/12/25 05:19:31;;;;;;;7.45;2.03;;;11.70;99.90;;;;;;7367066;19;20034;-76
2023/12/25 05:21:58;;;;;;;8.48;1.70;;;11.70;99.90;;;;;;7363019;19;20494;-77
2023/12/25 05:24:24;;;;;;;8.73;1.50;;;11.70;99.90;;;;;;7359808;19;20023;-76
2023/12/25 05:26:50;;;;;;;8.20;1.75;;;11.70;99.90;;;;;;7358199;19;20344;-76
2023/12/25 05:29:17;;;;;;;7.85;1.50;;;11.70;99.90;;;;;;7354526;19;20014;-77
2023/12/25 05:31:43;;;;;;;9.57;1.73;;;11.70;99.90;;;;;;7355636;19;20045;-77
2023/12/25 05:34:10;;;;;;;6.82;1.50;;;11.70;99.90;;;;;;7359031;19;20022;-76
2023/12/25 05:36:38;;;;;;;11.27;1.63;;;11.70;99.90;;;;;;7358292;19;20030;-77
2023/12/25 05:39:08;;;;;;;6.95;1.65;;;11.70;99.90;;;;;;7361161;19;20451;-76
2023/12/25 05:41:35;;;;;;;12.63;1.50;;;11.60;99.90;;;;;;7364179;19;20019;-77
2023/12/25 05:44:01;;;;;;;8.43;1.58;;;11.60;99.90;;;;;;7358887;19;20049;-77
2023/12/25 05:46:30;;;;;;;10.95;1.60;;;11.60;99.90;;;;;;7356094;19;20010;-64
2023/12/25 05:48:56;;;;;;;6.13;1.70;;;11.60;99.90;;;;;;7358784;19;20768;-65
2023/12/25 05:51:22;;;;;;;6.03;1.42;;;11.60;99.90;;;;;;7358831;19;20026;-64
2023/12/25 05:53:48;;;;;;;9.68;1.48;;;11.50;99.90;;;;;;7359541;19;20023;-65
2023/12/25 05:56:14;;;;;;;12.18;2.00;;;11.60;99.90;;;;;;7360896;19;20026;-64
2023/12/25 05:58:44;;;;;;;7.50;1.48;;;11.50;99.90;;;;;;7352714;19;20011;-65
2023/12/25 06:01:12;;;;;;;8.73;2.03;;;11.60;99.90;;;;;;7359956;19;20071;-65
2023/12/25 06:03:39;;;;;;;10.63;1.73;;;11.50;99.90;;;;;;7356694;19;20029;-65
2023/12/25 06:06:06;;;;;;;9.70;1.65;;;11.50;99.90;;;;;;7356221;19;20042;-65
2023/12/25 06:08:32;;;;;;;6.60;1.48;;;11.50;99.90;;;;;;7359220;19;20034;-65
2023/12/25 06:10:58;;;;;;;12.15;1.90;;;11.50;99.90;;;;;;7362588;19;20023;-65
2023/12/25 06:13:25;;;;;;;9.60;1.88;;;11.50;99.90;;;;;;7358179;19;20035;-67
2023/12/25 06:16:11;;;;;;;6.75;1.60;;;11.40;99.90;;;;;;7354025;19;20023;-65
2023/12/25 06:18:38;;;;;;;7.55;1.60;;;11.40;99.90;;;;;;7359691;19;20015;-65
2023/12/25 06:21:04;;;;;;;7.38;1.70;;;11.40;99.90;;;;;;7365466;19;20494;-65
2023/12/25 06:23:30;;;;;;;8.52;1.73;;;11.40;99.90;;;;;;7368685;19;20010;-65
2023/12/25 06:25:58;;;;;;;11.13;2.05;;;11.40;99.90;;;;;;7366467;19;20046;-65
2023/12/25 06:28:25;;;;;;;8.38;1.83;;;11.30;99.90;;;;;;7364908;19;20494;-64
2023/12/25 06:30:51;;;;;;;13.52;3.28;;;11.30;99.90;;;;;;7360044;19;20026;-65
2023/12/25 06:33:19;;;;;;;8.65;1.92;;;11.30;99.90;;;;;;7364365;19;20018;-64
2023/12/25 06:35:46;;;;;;;9.40;2.28;;;11.30;99.90;;;;;;7368316;19;20057;-76
2023/12/25 06:38:13;;;;;;;10.18;2.40;;;11.20;99.90;;;;;;7359662;19;20018;-76
2023/12/25 06:40:39;;;;;;;8.98;1.83;;;11.20;99.90;;;;;;7365516;19;20039;-77
2023/12/25 06:43:25;;;;;;;12.80;1.95;;;11.20;99.90;;;;;;7371221;19;20734;-76
2023/12/25 06:45:52;;;;;;;11.45;2.10;;;11.20;99.90;;;;;;7367587;19;20015;-77
2023/12/25 06:48:19;;;;;;;8.75;2.30;;;11.10;99.90;;;;;;7363828;19;20049;-76
2023/12/25 06:50:45;;;;;;;7.03;1.70;;;11.00;99.90;;;;;;7366489;19;20018;-77
2023/12/25 06:53:11;;;;;;;10.05;2.03;;;10.90;99.90;;;;;;7365842;19;20026;-65
2023/12/25 06:55:37;;;;;;;9.90;1.90;;;10.90;99.90;;;;;;7365842;19;20545;-67
2023/12/25 06:58:04;;;;;;;7.50;1.73;;;10.90;99.90;;;;;;7360117;19;20094;-65
2023/12/25 07:00:30;;;;;;;9.90;1.50;;;10.90;99.90;;;;;;7363801;19;20093;-65
2023/12/25 07:02:56;;;;;;;10.85;2.17;;;10.90;99.90;;;;;;7364143;19;20088;-76
2023/12/25 07:05:23;;;;;;;9.90;1.77;;;10.80;99.90;;;;;;7364764;19;20022;-76
2023/12/25 07:07:49;;;;;;;10.32;1.85;;;10.90;99.90;;;;;;7366389;19;20054;-76
2023/12/25 07:10:16;;;;;;;13.13;2.10;;;10.90;99.90;;;;;;7367241;19;20022;-76
2023/12/25 07:12:42;;;;;;;10.25;2.08;;;10.80;99.90;;;;;;7360064;19;20022;-74
2023/12/25 07:15:09;;;;;;;10.38;2.20;;;10.80;99.90;;;;;;7359624;19;20950;-77
2023/12/25 07:17:35;;;;;;;10.02;1.77;;;10.80;99.90;;;;;;7362775;19;20070;-77
2023/12/25 07:20:01;;;;;;;12.82;2.13;;;10.80;99.90;;;;;;7368602;19;20019;-77
2023/12/25 07:22:29;;;;;;;10.13;1.90;;;10.80;99.90;;;;;;7367643;19;20086;-76
2023/12/25 07:24:55;;;;;;;10.98;2.08;;;10.80;99.90;;;;;;7369464;19;20018;-65
2023/12/25 07:27:21;;;;;;;10.70;2.30;;;10.80;99.90;;;;;;7352987;19;20018;-65
2023/12/25 07:29:47;;;;;;;6.97;1.90;;;10.80;99.90;;;;;;7360497;19;20039;-65
2023/12/25 07:32:14;;;;;;;10.15;1.83;;;10.70;99.90;;;;;;7365241;19;20476;-65
2023/12/25 07:34:40;;;;;;;11.93;2.83;;;10.70;99.90;;;;;;7363172;19;20022;-65
2023/12/25 07:37:06;;;;;;;8.68;2.03;;;10.70;99.90;;;;;;7366864;19;20021;-65
2023/12/25 07:39:32;;;;;;;6.50;1.77;;;10.70;99.90;;;;;;7366547;19;20025;-66
2023/12/25 07:41:59;;;;;;;9.60;2.60;;;10.70;99.90;;;;;;7365260;19;20026;-66
2023/12/25 07:44:27;;;;;;;10.25;2.03;;;10.60;99.90;;;;;;7367362;19;20022;-65
2023/12/25 07:46:53;;;;;;;4.57;1.60;;;10.60;99.90;;;;;;7357553;19;20022;-67
2023/12/25 07:49:21;;;;;;;11.48;2.15;;;10.60;99.90;;;;;;7361646;19;20026;-66
2023/12/25 07:51:48;;;;;;;13.40;2.55;;;10.50;99.90;;;;;;7362134;19;20018;-65
2023/12/25 07:54:14;;;;;;;6.07;1.73;;;10.50;99.90;;;;;;7366994;19;20040;-65
2023/12/25 07:56:42;;;;;;;9.95;2.05;;;10.50;99.90;;;;;;7360384;19;20025;-66
2023/12/25 07:59:09;;;;;;;9.90;1.98;;;10.50;99.90;;;;;;7363785;19;20798;-70
2023/12/25 08:01:38;;;;;;;11.93;2.97;;;10.50;99.90;;;;;;7369747;19;20019;-72
2023/12/25 08:04:07;;;;;;;11.75;4.10;;;10.50;99.90;;;;;;7366787;19;20026;-65
2023/12/25 08:06:33;;;;;;;10.73;2.15;;;10.40;99.90;;;;;;7368745;19;20018;-76
2023/12/25 08:08:59;;;;;;;11.95;3.25;;;10.40;99.90;;;;;;7363493;19;20910;-76
2023/12/25 08:11:27;;;;;;;10.77;2.55;;;10.40;99.90;;;;;;7364260;19;20558;-76
2023/12/25 08:13:53;;;;;;;10.32;1.88;;;10.30;99.90;;;;;;7366199;19;20539;-76
2023/12/25 08:16:20;;;;;;;10.50;1.83;;;10.40;99.90;;;;;;7361887;19;20576;-77
2023/12/25 08:18:47;;;;;;;10.70;2.00;;;10.40;99.90;;;;;;7361444;19;20338;-76
2023/12/25 08:21:34;;;;;;;11.23;2.22;;;10.40;99.90;;;;;;7365916;19;20022;-76
2023/12/25 08:24:00;;;;;;;11.30;1.83;;;10.40;99.90;;;;;;7366167;19;20755;-76
2023/12/25 08:26:26;;;;;;;9.30;2.22;;;10.40;99.90;;;;;;7365386;19;21459;-76
2023/12/25 08:28:53;;;;;;;15.70;2.67;;;10.30;99.90;;;;;;7361269;19;21211;-70
2023/12/25 08:31:19;;;;;;;13.20;3.75;;;10.40;99.90;;;;;;7366915;19;20018;-76
2023/12/25 08:33:45;;;;;;;8.50;1.95;;;10.30;99.90;;;;;;7365253;19;20018;-76
2023/12/25 08:36:12;;;;;;;9.57;2.05;;;10.40;99.90;;;;;;7374175;19;20501;-76
2023/12/25 08:38:39;;;;;;;9.07;2.25;;;10.40;99.90;;;;;;7370155;19;20039;-76
2023/12/25 08:41:05;;;;;;;10.07;2.40;;;10.40;99.90;;;;;;7372478;19;20019;-76
2023/12/25 08:43:31;;;;;;;10.35;2.10;;;10.40;99.90;;;;;;7359046;19;20026;-77
2023/12/25 08:45:57;;;;;;;9.95;3.45;;;10.40;99.90;;;;;;7370434;19;20041;-65
2023/12/25 08:48:24;;;;;;;9.52;1.98;;;10.40;99.90;;;;;;7371021;19;20082;-65
2023/12/25 08:50:51;;;;;;;10.07;1.75;;;10.50;99.90;;;;;;7367096;19;20010;-65
2023/12/25 08:53:17;;;;;;;11.30;2.05;;;10.60;99.90;;;;;;7371078;19;20846;-65
2023/12/25 08:55:43;;;;;;;8.95;2.08;;;10.50;99.90;;;;;;7364706;19;20014;-66
2023/12/25 08:58:10;;;;;;;11.88;2.33;;;10.60;99.90;;;;;;7369246;19;20014;-67
2023/12/25 09:00:39;;;;;;;9.27;2.55;;;10.60;99.90;;;;;;7372435;19;20010;-76
2023/12/25 09:03:06;;;;;;;9.77;1.90;;;10.50;99.90;;;;;;7373292;19;20079;-76
2023/12/25 09:05:32;;;;;;;8.27;1.83;;;10.60;99.90;;;;;;7371361;19;20565;-77
2023/12/25 09:07:59;;;;;;;12.27;2.42;;;10.70;99.90;;;;;;7370959;19;20133;-77
2023/12/25 09:10:25;;;;;;;13.40;3.75;;;10.80;99.90;;;;;;7370940;19;20014;-76
2023/12/25 09:12:51;;;;;;;12.65;2.10;;;10.80;99.90;;;;;;7367794;19;20018;-65
2023/12/25 09:15:18;;;;;;;10.57;2.67;;;10.80;99.90;;;;;;7367603;19;20133;-65
2023/12/25 09:17:45;;;;;;;9.27;2.15;;;10.70;99.90;;;;;;7369986;19;20014;-65
2023/12/25 09:20:12;;;;;;;10.50;2.08;;;10.80;99.90;;;;;;7365499;19;20040;-66
2023/12/25 09:22:38;;;;;;;14.63;3.35;;;10.70;99.90;;;;;;7363093;19;20495;-65
2023/12/25 09:25:05;;;;;;;9.32;2.00;;;10.70;99.90;;;;;;7367236;19;20022;-65
2023/12/25 09:27:31;;;;;;;8.05;2.35;;;10.70;99.90;;;;;;7360806;19;20257;-65
2023/12/25 09:29:58;;;;;;;13.98;2.67;;;10.70;99.90;;;;;;7362920;19;20045;-65
2023/12/25 09:32:27;;;;;;;9.77;2.17;;;10.70;99.90;;;;;;7370555;19;20014;-67
2023/12/25 09:34:53;;;;;;;13.32;2.33;;;10.70;99.90;;;;;;7367747;19;20652;-65
2023/12/25 09:37:19;;;;;;;12.30;2.15;;;10.70;99.90;;;;;;7366361;19;20030;-65
2023/12/25 09:39:46;;;;;;;10.63;2.03;;;10.80;99.90;;;;;;7365887;19;20506;-64
2023/12/25 09:42:12;;;;;;;13.35;2.53;;;10.80;99.90;;;;;;7366380;19;20692;-65
2023/12/25 09:44:58;;;;;;;12.43;2.20;;;10.80;99.90;;;;;;7365830;19;20021;-78
2023/12/25 09:47:25;;;;;;;11.88;2.13;;;10.80;99.90;;;;;;7367145;19;20014;-77
2023/12/25 09:49:53;;;;;;;11.13;1.48;;;10.90;99.90;;;;;;7370269;19;20070;-77
2023/12/25 09:52:20;;;;;;;9.95;2.58;;;11.00;99.90;;;;;;7363082;19;20233;-77
2023/12/25 09:54:47;;;;;;;10.02;1.85;;;11.10;99.90;;;;;;7374331;19;20038;-77
2023/12/25 09:57:14;;;;;;;12.60;2.17;;;11.20;99.90;;;;;;7378768;19;20042;-78
2023/12/25 09:59:42;;;;;;;12.95;2.92;;;11.30;99.90;;;;;;7375859;19;20022;-77
2023/12/25 10:02:11;;;;;;;9.50;2.00;;;11.30;99.90;;;;;;7377644;19;20479;-78
2023/12/25 10:04:40;;;;;;;13.40;2.40;;;11.30;99.90;;;;;;7372091;19;20033;-65
2023/12/25 10:07:07;;;;;;;12.68;2.25;;;11.40;99.90;;;;;;7370581;19;20638;-65
2023/12/25 10:09:34;;;;;;;10.32;2.30;;;11.40;99.90;;;;;;7370141;19;20014;-65
2023/12/25 10:12:20;;;;;;;9.23;2.70;;;11.40;99.90;;;;;;7368714;19;20026;-63
2023/12/25 10:14:47;;;;;;;13.75;2.22;;;11.30;99.90;;;;;;7373403;19;20022;-65
2023/12/25 10:17:13;;;;;;;9.38;3.03;;;11.20;99.90;;;;;;7376365;19;20023;-65
2023/12/25 10:19:50;;;;;;;12.40;2.40;;;11.20;99.90;;;;;;7370843;19;20018;-65
2023/12/25 10:22:38;;;;;;;12.15;2.22;;;11.20;99.90;;;;;;7373750;19;20018;-65
2023/12/25 10:25:06;;;;;;;10.70;2.42;;;11.10;99.90;;;;;;7369064;19;20370;-65
2023/12/25 10:27:38;;;;;;;10.80;1.98;;;11.10;99.90;;;;;;7373835;19;20029;-65
2023/12/25 10:30:21;;;;;;;10.52;2.42;;;11.10;99.90;;;;;;7373337;19;20081;-74
2023/12/25 10:32:48;;;;;;;8.95;2.03;;;11.10;99.90;;;;;;7370715;19;20477;-75
2023/12/25 10:35:19;;;;;;;8.77;1.70;;;11.00;99.90;;;;;;7374694;19;20405;-75
2023/12/25 10:37:46;;;;;;;10.05;2.17;;;11.00;99.90;;;;;;7372200;19;20018;-75
2023/12/25 10:40:27;;;;;;;6.63;2.42;;;11.00;99.90;;;;;;7373383;19;20094;-75
2023/12/25 10:42:55;;;;;;;13.05;2.10;;;11.00;99.90;;;;;;7370805;19;20856;-76
2023/12/25 10:45:30;;;;;;;8.73;2.22;;;11.00;99.90;;;;;;7378685;19;20022;-75
2023/12/25 10:48:03;;;;;;;11.40;2.60;;;11.00;99.90;;;;;;7373330;19;20027;-75
2023/12/25 10:50:36;;;;;;;20.85;3.15;;;11.00;99.90;;;;;;7372770;19;20014;-76
2023/12/25 10:53:09;;;;;;;10.82;1.80;;;11.00;99.90;;;;;;7374500;19;20125;-65
2023/12/25 10:55:46;;;;;;;16.73;2.75;;;10.90;99.90;;;;;;7371675;19;20028;-66
2023/12/25 10:58:16;;;;;;;13.32;2.95;;;10.90;99.90;;;;;;7374918;19;20071;-66
2023/12/25 11:00:56;;;;;;;11.05;2.17;;;10.90;99.90;;;;;;7374446;19;20055;-65
2023/12/25 11:03:24;;;;;;;11.05;2.53;;;10.90;99.90;;;;;;7375130;19;20018;-65
2023/12/25 11:05:51;;;;;;;10.65;2.58;;;10.90;99.90;;;;;;7367147;19;20018;-65
2023/12/25 11:08:20;;;;;;;12.73;3.40;;;10.90;99.90;;;;;;7369092;19;20018;-65
2023/12/25 11:10:46;;;;;;;15.55;2.67;;;10.90;99.90;;;;;;7370548;19;20023;-65
2023/12/25 11:13:13;;;;;;;11.05;2.90;;;10.80;99.90;;;;;;7370061;19;20014;-65
2023/12/25 11:15:40;;;;;;;12.88;2.08;;;10.80;99.90;;;;;;7368247;19;20018;-65
2023/12/25 11:18:09;;;;;;;15.57;2.65;;;10.90;99.90;;;;;;7374714;19;20043;-65
2023/12/25 11:20:35;;;;;;;11.70;3.28;;;10.90;99.90;;;;;;7363263;19;20780;-65
2023/12/25 11:23:22;;;;;;;16.98;2.88;;;10.90;99.90;;;;;;7368115;19;20022;-65
2023/12/25 11:25:48;;;;;;;12.13;2.17;;;10.90;99.90;;;;;;7371487;19;20026;-65
2023/12/25 11:28:14;;;;;;;15.35;2.97;;;10.90;99.90;;;;;;7376185;19;20043;-67
2023/12/25 11:30:41;;;;;;;13.05;2.25;;;10.90;99.90;;;;;;7367839;19;20377;-74
2023/12/25 11:33:11;;;;;;;15.70;2.83;;;10.90;99.90;;;;;;7367646;19;20018;-65
2023/12/25 11:35:39;;;;;;;12.80;3.35;;;11.00;99.90;;;;;;7374277;19;20025;-66
2023/12/25 11:38:19;;;;;;;60.38;41.70;;;11.00;99.90;;;;;;7372188;19;20023;-65
2023/12/25 11:40:48;;;;;;;9.88;2.10;;;11.10;99.90;;;;;;7364319;19;20641;-65
2023/12/25 11:43:17;;;;;;;11.20;3.00;;;11.10;99.90;;;;;;7367101;19;20021;-65
2023/12/25 11:45:45;;;;;;;9.80;2.63;;;11.20;99.90;;;;;;7368333;19;20023;-70
2023/12/25 11:48:14;;;;;;;8.93;2.20;;;11.20;99.90;;;;;;7368735;19;20710;-65
2023/12/25 11:50:45;;;;;;;12.80;2.38;;;11.10;99.90;;;;;;7368134;19;20035;-65
2023/12/25 11:53:35;;;;;;;13.90;2.90;;;11.10;99.90;;;;;;7369438;19;20019;-73
2023/12/25 11:56:02;;;;;;;11.93;2.05;;;11.10;99.90;;;;;;7367424;19;20014;-73
2023/12/25 11:58:30;;;;;;;13.27;2.00;;;11.20;99.90;;;;;;7368224;19;20018;-73
2023/12/25 12:00:57;;;;;;;14.20;2.95;;;11.30;99.90;;;;;;7362820;19;20077;-74
2023/12/25 12:03:23;;;;;;;16.27;3.55;;;11.30;99.90;;;;;;7367826;19;20092;-74
2023/12/25 12:05:50;;;;;;;12.85;2.92;;;11.40;99.90;;;;;;7366951;19;20050;-65
2023/12/25 12:08:16;;;;;;;13.65;3.17;;;11.40;99.90;;;;;;7369638;19;20035;-65
2023/12/25 12:10:42;;;;;;;14.05;3.53;;;11.40;99.90;;;;;;7367204;19;20014;-66
2023/12/25 12:13:11;;;;;;;11.85;2.65;;;11.40;99.90;;;;;;7369567;19;20518;-65
2023/12/25 12:15:38;;;;;;;9.18;2.28;;;11.70;99.90;;;;;;7367772;19;20014;-65
2023/12/25 12:18:05;;;;;;;12.25;2.55;;;12.20;99.90;;;;;;7370547;19;20018;-65
2023/12/25 12:20:31;;;;;;;12.10;2.33;;;12.60;99.90;;;;;;7369407;19;20794;-65
2023/12/25 12:22:58;;;;;;;21.17;2.80;;;12.60;99.90;;;;;;7366677;19;20015;-65
2023/12/25 12:25:28;;;;;;;15.60;2.63;;;12.60;99.90;;;;;;7368641;19;20021;-66
2023/12/25 12:27:58;;;;;;;8.13;2.08;;;12.70;99.90;;;;;;7368557;19;20022;-66
2023/12/25 12:30:25;;;;;;;9.25;2.13;;;13.10;99.90;;;;;;7370732;19;20030;-66
2023/12/25 12:32:54;;;;;;;10.18;1.88;;;13.60;99.90;;;;;;7366885;19;20355;-75
2023/12/25 12:35:21;;;;;;;15.00;2.85;;;13.70;99.90;;;;;;7371660;19;20478;-65
2023/12/25 12:38:10;;;;;;;10.23;3.10;;;13.70;99.90;;;;;;7367405;19;20011;-65
2023/12/25 12:40:36;;;;;;;13.55;2.97;;;13.30;99.90;;;;;;7368106;19;20053;-66
2023/12/25 12:43:02;;;;;;;9.60;2.15;;;12.80;99.90;;;;;;7367610;19;20014;-65
2023/12/25 12:45:29;;;;;;;8.02;1.92;;;12.60;99.90;;;;;;7366316;19;20018;-65